Seneca, SC (29679)

12:12 PM EDT on September 21, 2014 (GMT -0400)
Core FR on Miracle Circle | Change Station
CLOSE
Current Station
Personal Weather Station
Location: Seneca, SC
Elevation: 965 ft
Nearby Weather Stations

Elev 965 ft 34.69 °N, 82.98 °W | Updated 2 minutes ago

Clear
Clear
78.7 °F
Feels Like 81 °F
N
7.0
Wind Variable Wind from West
Gusts 14.0 mph

Today
High -- | Low -- °F
--% Chance of Precip.
Yesterday
High -- | Low -- °F
Precip. -- in
7:19 AM 7:30 PM
Waning Crescent, 6% visible
Pressure 29.99 in
Visibility 10.0 miles
Clouds Clear
Heat Index 81 °F
Dew Point 66 °F
Humidity 66%
Rainfall 0.00 in
Snow Depth Not available.
UV 7 out of 12
Pollen 7.30 out of 12
Ozone Good
PM2.5 Good
Flu Activity Not available.
METAR KCEU 211554Z AUTO 27012G18KT 10SM CLR 28/16 A3001 RMK AO2 SLP153 T02780161

More Conditions Fewer Conditions

Pressure 29.99 in
Visibility 10.0 miles
Clouds Clear
Heat Index 81 °F
Dew Point 66 °F
Humidity 66%
Rainfall 0.00 in
Snow Depth Not available.
UV 7 out of 12
Pollen 7.30 out of 12
Ozone Good
PM2.5 Good
Flu Activity Not available.
METAR KCEU 211554Z AUTO 27012G18KT 10SM CLR 28/16 A3001 RMK AO2 SLP153 T02780161

More Conditions Fewer Conditions

10-Day Weather Forecast

Almanac

Astronomy

Sep. 21, 2014 Rise Set
Actual Time 7:19 AM EDT 7:30 PM EDT
Civil Twilight 6:53 AM EDT 7:55 PM EDT
Nautical Twilight 6:24 AM EDT 8:24 PM EDT
Astronomical Twilight 5:54 AM EDT 8:54 PM EDT
Moon 4:56 AM EDT 6:01 PM EDT
Length of Visible Light 13h 01m
Length of Day
12h 10m
Tomorrow will be 2m 9s shorter.
Waning Crescent, 6% of the Moon is Illuminated
Today
Waning Crescent
Sep 24
New
Oct 1
First Quarter
Oct 8
Full
Oct 15
Last Quarter

Today's Extremes

State Highs State Lows

Community

WunderPhotos

Upload Photos

1,755,181 photos uploaded!

Nearby

Air Quality

  Air Quality AQ Index Pollutant
Yesterday Good
OZONE
Yesterday Good
PM2.5
Current Good
PM2.5
Current Good
OZONE
Sunday Good
OZONE

Snow Depth

Station Depth Elevation
No new snow has been reported.

Earthquake Activity

City Distance Mag. Time & Date
Sweetwater, Tennessee 106 miles 2.5 3:54 PM EDT
2014-09-20
New Ellenton, South Carolina 110 miles 2.6 4:38 PM EDT
2014-09-19
Minimum magnitude displayed is 2.5.

Coastal Water Temperatures

Place Temperature
No Stations Reporting

Nearby Weather Stations